7D5 weather

Priebe Airport
Findlay, Ohio, United States

Public forecast

Using degrees Fahrenheit for public forecast. Weather courtesy of forecast.io.

Closest aviation weather report (METAR) to Priebe Airport

Closest report is Findlay Airport, 6.1 nm (11.2 km) S. Retrieved 2020/02/24 21:32 UTC (14 minutes ago):

KFDY 242132Z AUTO 14006KT 1 3/4SM -RA BR OVC013 07/05 A2984 RMK AO2 RAB2054 P0001 T00670050

Closest aviation forecast (TAF) to Priebe Airport

Closest forecast is Findlay Airport, 6.1 nm (11.2 km) S. Retrieved 2020/02/24 18:24 UTC (3 hours ago):

TAF KFDY 241722Z 2418/2518 19005KT P6SM SCT040 OVC130 FM242000 15004KT P6SM -RA SCT008 OVC030 FM242300 09006KT 4SM -RA BR OVC008 FM251000 04010KT 4SM -RA BR OVC008 FM251400 04010KT P6SM -SHRA SCT008 OVC015